Time;durP1;ratioP1;P1;durP2;ratioP2;P2;SDS_P1;SDS_P2;PMS_P1;PMS_P2;Temp;Humidity;BMP_temperature;BMP_pressure;BME280_temperature;BME280_humidity;BME280_pressure;Samples;Min_cycle;Max_cycle;Signal;HPM_P1;HPM_P2
2022/06/15 00:01:46;;;;;;;5.67;3.13;;;;;;;;;;5101362;27;20312;-74
2022/06/15 00:04:14;;;;;;;6.40;3.57;;;;;;;;;;5107291;28;20285;-74
2022/06/15 00:06:42;;;;;;;4.90;3.07;;;;;;;;;;5095839;28;20713;-74
2022/06/15 00:09:10;;;;;;;5.90;3.43;;;;;;;;;;5101562;28;20738;-74
2022/06/15 00:11:39;;;;;;;6.10;2.90;;;;;;;;;;5097099;28;20277;-74
2022/06/15 00:14:07;;;;;;;5.17;3.20;;;;;;;;;;5129292;27;20304;-74
2022/06/15 00:16:35;;;;;;;5.30;3.40;;;;;;;;;;5098900;27;20636;-74
2022/06/15 00:19:02;;;;;;;3.53;2.80;;;;;;;;;;5095208;28;20206;-75
2022/06/15 00:21:31;;;;;;;7.30;3.20;;;;;;;;;;5104993;28;20198;-74
2022/06/15 00:23:59;;;;;;;7.20;3.23;;;;;;;;;;5101894;28;20221;-74
2022/06/15 00:26:26;;;;;;;6.40;3.20;;;;;;;;;;5099510;28;20690;-74
2022/06/15 00:28:53;;;;;;;8.73;3.53;;;;;;;;;;5097415;28;20246;-74
2022/06/15 00:31:21;;;;;;;6.40;3.53;;;;;;;;;;5105944;28;20372;-74
2022/06/15 00:33:48;;;;;;;6.93;3.93;;;;;;;;;;5090766;28;20727;-74
2022/06/15 00:36:17;;;;;;;4.00;3.23;;;;;;;;;;5107974;27;20297;-74
2022/06/15 00:38:47;;;;;;;8.27;3.97;;;;;;;;;;5107121;27;20197;-74
2022/06/15 00:41:15;;;;;;;5.47;3.10;;;;;;;;;;5118209;27;20308;-74
2022/06/15 00:43:44;;;;;;;5.13;3.30;;;;;;;;;;5115749;27;20193;-74
2022/06/15 00:46:15;;;;;;;7.47;3.63;;;;;;;;;;5117065;27;20285;-74
2022/06/15 00:48:43;;;;;;;5.77;3.43;;;;;;;;;;5096385;28;20249;-74
2022/06/15 00:51:11;;;;;;;8.77;4.03;;;;;;;;;;5105098;27;20289;-75
2022/06/15 00:53:38;;;;;;;4.57;3.53;;;;;;;;;;5122431;27;20213;-75
2022/06/15 00:56:08;;;;;;;5.03;3.43;;;;;;;;;;5107131;28;20293;-74
2022/06/15 00:58:36;;;;;;;5.73;3.63;;;;;;;;;;5114880;27;20233;-74
2022/06/15 01:01:04;;;;;;;5.40;3.53;;;;;;;;;;5115554;27;20233;-74
2022/06/15 01:03:31;;;;;;;6.07;4.07;;;;;;;;;;5101012;27;20358;-74
2022/06/15 01:06:00;;;;;;;4.57;3.40;;;;;;;;;;5109794;28;20247;-74
2022/06/15 01:08:32;;;;;;;5.77;3.67;;;;;;;;;;5100112;28;20310;-74
2022/06/15 01:11:13;;;;;;;7.20;3.60;;;;;;;;;;5111059;28;20289;-74
2022/06/15 01:13:55;;;;;;;5.73;3.40;;;;;;;;;;5101894;28;20210;-74
2022/06/15 01:16:32;;;;;;;6.60;3.40;;;;;;;;;;5112336;28;20220;-74
2022/06/15 01:19:04;;;;;;;5.60;3.60;;;;;;;;;;5124053;28;20278;-74
2022/06/15 01:21:33;;;;;;;4.47;3.37;;;;;;;;;;5103033;28;20210;-74
2022/06/15 01:24:16;;;;;;;6.43;3.50;;;;;;;;;;5109487;28;20229;-74
2022/06/15 01:27:15;;;;;;;4.53;3.73;;;;;;;;;;5098595;28;20714;-74
2022/06/15 01:30:04;;;;;;;5.57;3.87;;;;;;;;;;5112405;27;20249;-74
2022/06/15 01:32:35;;;;;;;9.13;4.20;;;;;;;;;;5038413;28;20215;-74
2022/06/15 01:35:06;;;;;;;5.57;3.67;;;;;;;;;;5039349;28;20577;-74
2022/06/15 01:37:35;;;;;;;6.30;4.07;;;;;;;;;;5032431;28;20196;-75
2022/06/15 01:40:07;;;;;;;5.33;3.73;;;;;;;;;;5031604;28;20290;-74
2022/06/15 01:42:36;;;;;;;5.10;3.57;;;;;;;;;;5031727;28;20235;-74
2022/06/15 01:45:07;;;;;;;6.43;3.90;;;;;;;;;;5041177;28;20302;-74
2022/06/15 01:47:36;;;;;;;5.70;3.77;;;;;;;;;;5045678;28;20200;-74
2022/06/15 01:50:09;;;;;;;5.27;3.87;;;;;;;;;;5045336;28;20837;-74
2022/06/15 01:52:40;;;;;;;5.73;3.57;;;;;;;;;;5051121;28;20230;-74
2022/06/15 01:55:08;;;;;;;7.87;3.70;;;;;;;;;;5047839;28;20288;-74
2022/06/15 01:57:37;;;;;;;5.50;3.57;;;;;;;;;;5037228;28;20783;-74
2022/06/15 02:00:07;;;;;;;6.20;3.43;;;;;;;;;;5030922;28;20291;-74
2022/06/15 02:02:38;;;;;;;4.63;3.80;;;;;;;;;;5042844;28;20232;-74
2022/06/15 02:05:08;;;;;;;8.03;4.03;;;;;;;;;;5046760;28;20299;-74
2022/06/15 02:07:38;;;;;;;7.47;4.10;;;;;;;;;;5064790;28;20295;-74
2022/06/15 02:10:07;;;;;;;8.17;3.97;;;;;;;;;;5094160;28;20236;-74
2022/06/15 02:12:37;;;;;;;6.53;3.93;;;;;;;;;;5113774;28;20632;-74
2022/06/15 02:15:06;;;;;;;4.93;3.83;;;;;;;;;;5113907;28;20292;-74
2022/06/15 02:17:34;;;;;;;4.87;4.07;;;;;;;;;;5097846;28;20238;-74
2022/06/15 02:20:05;;;;;;;6.07;3.70;;;;;;;;;;5098406;28;20647;-74
2022/06/15 02:22:34;;;;;;;5.47;3.90;;;;;;;;;;5116267;27;20630;-74
2022/06/15 02:25:03;;;;;;;5.40;4.43;;;;;;;;;;5121934;27;20205;-74
2022/06/15 02:27:32;;;;;;;5.27;3.90;;;;;;;;;;5104912;28;20277;-74
2022/06/15 02:30:01;;;;;;;6.37;4.33;;;;;;;;;;5109473;27;20288;-74
2022/06/15 02:32:29;;;;;;;10.90;4.63;;;;;;;;;;5112445;28;20288;-74
2022/06/15 02:34:56;;;;;;;8.73;4.77;;;;;;;;;;5106549;28;20221;-74
2022/06/15 02:37:24;;;;;;;8.23;4.57;;;;;;;;;;5093319;28;20582;-74
2022/06/15 02:39:52;;;;;;;5.27;4.17;;;;;;;;;;5092987;28;20199;-74
2022/06/15 02:42:24;;;;;;;6.20;4.20;;;;;;;;;;5093710;28;20206;-74
2022/06/15 02:44:52;;;;;;;7.67;4.10;;;;;;;;;;5097503;27;20225;-74
2022/06/15 02:47:22;;;;;;;7.00;4.93;;;;;;;;;;5094296;27;20279;-74
2022/06/15 02:49:51;;;;;;;5.57;4.10;;;;;;;;;;5093186;28;20285;-74
2022/06/15 02:52:19;;;;;;;8.27;4.47;;;;;;;;;;5100755;27;20661;-74
2022/06/15 02:54:49;;;;;;;5.00;4.50;;;;;;;;;;5105628;28;20308;-74
2022/06/15 02:57:17;;;;;;;8.90;5.03;;;;;;;;;;5121334;27;20201;-74
2022/06/15 02:59:45;;;;;;;5.27;3.70;;;;;;;;;;5098687;28;20233;-74
2022/06/15 03:02:14;;;;;;;6.13;4.23;;;;;;;;;;5111080;28;20238;-74
2022/06/15 03:04:41;;;;;;;6.17;4.00;;;;;;;;;;5096418;28;20202;-74
2022/06/15 03:07:10;;;;;;;4.90;3.80;;;;;;;;;;5126159;27;20193;-74
2022/06/15 03:09:38;;;;;;;6.97;4.07;;;;;;;;;;5110514;27;20194;-74
2022/06/15 03:12:07;;;;;;;5.77;4.17;;;;;;;;;;5106475;28;20216;-74
2022/06/15 03:14:35;;;;;;;6.17;4.00;;;;;;;;;;5112285;28;20280;-74
2022/06/15 03:17:02;;;;;;;6.63;4.10;;;;;;;;;;5112265;27;20204;-74
2022/06/15 03:19:29;;;;;;;5.30;3.50;;;;;;;;;;5102675;27;20298;-74
2022/06/15 03:21:56;;;;;;;6.63;4.00;;;;;;;;;;5093830;28;20234;-74
2022/06/15 03:24:23;;;;;;;7.27;3.70;;;;;;;;;;5104490;27;20240;-74
2022/06/15 03:26:51;;;;;;;7.77;4.10;;;;;;;;;;5118969;27;20281;-74
2022/06/15 03:29:20;;;;;;;5.20;4.00;;;;;;;;;;5131221;27;20229;-74
2022/06/15 03:31:47;;;;;;;5.10;3.97;;;;;;;;;;5111863;28;20228;-74
2022/06/15 03:34:14;;;;;;;6.80;4.00;;;;;;;;;;5092525;28;20222;-74
2022/06/15 03:36:41;;;;;;;5.57;4.07;;;;;;;;;;5092068;28;20222;-74
2022/06/15 03:39:08;;;;;;;7.33;4.20;;;;;;;;;;5099839;28;20244;-74
2022/06/15 03:41:36;;;;;;;7.27;4.27;;;;;;;;;;5091072;28;20233;-74
2022/06/15 03:44:03;;;;;;;7.23;3.80;;;;;;;;;;5111952;27;20728;-74
2022/06/15 03:46:31;;;;;;;5.50;4.27;;;;;;;;;;5091245;28;20294;-74
2022/06/15 03:48:59;;;;;;;7.83;4.00;;;;;;;;;;5101010;28;20300;-74
2022/06/15 03:51:26;;;;;;;5.73;4.63;;;;;;;;;;5095798;27;20230;-74
2022/06/15 03:53:53;;;;;;;7.73;4.33;;;;;;;;;;5091065;28;20304;-74
2022/06/15 03:56:20;;;;;;;4.50;3.83;;;;;;;;;;5106323;27;20293;-74
2022/06/15 03:58:47;;;;;;;6.40;4.40;;;;;;;;;;5092070;28;20226;-74
2022/06/15 04:01:14;;;;;;;7.33;4.47;;;;;;;;;;5116948;27;20316;-75
2022/06/15 04:03:43;;;;;;;6.00;4.50;;;;;;;;;;5098577;28;20222;-75
2022/06/15 04:06:11;;;;;;;8.50;4.30;;;;;;;;;;5095452;28;20300;-75
2022/06/15 04:08:40;;;;;;;6.77;4.70;;;;;;;;;;5111780;28;20225;-75
2022/06/15 04:11:08;;;;;;;5.27;4.30;;;;;;;;;;5106948;28;20237;-75
2022/06/15 04:13:35;;;;;;;8.57;5.27;;;;;;;;;;5111305;28;20222;-75
2022/06/15 04:16:03;;;;;;;6.83;4.57;;;;;;;;;;5115184;27;20229;-75
2022/06/15 04:18:30;;;;;;;7.77;4.90;;;;;;;;;;5117172;27;20289;-75
2022/06/15 04:20:59;;;;;;;5.53;4.63;;;;;;;;;;5100436;28;20206;-75
2022/06/15 04:23:26;;;;;;;6.57;4.87;;;;;;;;;;5118371;27;20208;-75
2022/06/15 04:25:57;;;;;;;5.47;4.43;;;;;;;;;;5108520;27;20234;-75
2022/06/15 04:28:24;;;;;;;7.07;4.73;;;;;;;;;;5114836;27;20702;-75
2022/06/15 04:30:52;;;;;;;6.03;4.77;;;;;;;;;;5111396;27;20225;-75
2022/06/15 04:33:20;;;;;;;5.80;4.57;;;;;;;;;;5108647;27;20285;-75
2022/06/15 04:35:47;;;;;;;8.43;4.97;;;;;;;;;;5110371;28;20194;-75
2022/06/15 04:38:16;;;;;;;5.80;4.67;;;;;;;;;;5110053;28;20285;-75
2022/06/15 04:40:44;;;;;;;7.47;4.90;;;;;;;;;;5096051;28;20251;-75
2022/06/15 04:43:11;;;;;;;5.63;4.30;;;;;;;;;;5090717;27;20198;-75
2022/06/15 04:45:38;;;;;;;7.73;4.90;;;;;;;;;;5094183;28;20722;-75
2022/06/15 04:48:06;;;;;;;7.00;4.23;;;;;;;;;;5091239;28;20619;-75
2022/06/15 04:50:34;;;;;;;6.63;4.63;;;;;;;;;;5131187;27;20205;-75
2022/06/15 04:53:02;;;;;;;7.20;4.80;;;;;;;;;;5118998;27;20245;-75
2022/06/15 04:55:31;;;;;;;6.90;4.60;;;;;;;;;;5096435;27;20218;-76
2022/06/15 04:57:59;;;;;;;6.97;4.70;;;;;;;;;;5102729;28;20285;-75
2022/06/15 05:00:27;;;;;;;5.43;4.60;;;;;;;;;;5102395;28;20257;-75
2022/06/15 05:02:54;;;;;;;6.37;4.07;;;;;;;;;;5099818;28;20236;-75
2022/06/15 05:05:21;;;;;;;9.40;4.77;;;;;;;;;;5112225;27;20194;-74
2022/06/15 05:07:48;;;;;;;5.67;4.80;;;;;;;;;;5109649;27;20288;-75
2022/06/15 05:10:18;;;;;;;7.67;4.50;;;;;;;;;;5096421;28;20277;-75
2022/06/15 05:12:47;;;;;;;9.50;4.37;;;;;;;;;;5089565;28;20209;-75
2022/06/15 05:15:15;;;;;;;5.57;4.47;;;;;;;;;;5105860;28;20293;-75
2022/06/15 05:17:43;;;;;;;8.40;4.60;;;;;;;;;;5131290;28;20276;-74
2022/06/15 05:20:11;;;;;;;6.23;4.60;;;;;;;;;;5103895;28;20233;-74
2022/06/15 05:22:38;;;;;;;7.87;4.20;;;;;;;;;;5100234;28;20724;-74
2022/06/15 05:25:07;;;;;;;7.03;4.83;;;;;;;;;;5109214;28;20196;-74
2022/06/15 05:27:35;;;;;;;6.80;4.43;;;;;;;;;;5109571;28;20205;-74
2022/06/15 05:30:03;;;;;;;7.23;4.87;;;;;;;;;;5092387;28;20305;-74
2022/06/15 05:32:30;;;;;;;8.30;4.30;;;;;;;;;;5090132;28;20340;-74
2022/06/15 05:34:58;;;;;;;6.50;4.27;;;;;;;;;;5102879;28;20308;-75
2022/06/15 05:37:25;;;;;;;5.07;3.73;;;;;;;;;;5098574;28;20233;-76
2022/06/15 05:39:52;;;;;;;4.90;3.60;;;;;;;;;;5097528;28;20281;-75
2022/06/15 05:42:19;;;;;;;4.75;3.70;;;;;;;;;;5063636;28;20221;-75
2022/06/15 05:44:51;;;;;;;5.38;3.85;;;;;;;;;;5105840;28;20245;-76
2022/06/15 05:47:19;;;;;;;5.78;4.10;;;;;;;;;;5104668;28;20558;-76
2022/06/15 05:49:46;;;;;;;5.10;3.63;;;;;;;;;;5107686;28;20293;-75
2022/06/15 05:52:14;;;;;;;5.13;3.90;;;;;;;;;;5107130;28;20355;-76
2022/06/15 05:54:41;;;;;;;7.20;3.83;;;;;;;;;;5102971;28;20768;-75
2022/06/15 05:57:12;;;;;;;6.03;3.50;;;;;;;;;;5103979;28;20251;-75
2022/06/15 05:59:39;;;;;;;8.10;3.58;;;;;;;;;;5095843;28;20208;-75
2022/06/15 06:02:06;;;;;;;4.82;3.35;;;;;;;;;;5090074;28;20264;-75
2022/06/15 06:04:35;;;;;;;6.97;3.75;;;;;;;;;;5091978;28;20280;-75
2022/06/15 06:07:02;;;;;;;4.72;3.60;;;;;;;;;;5096782;28;20380;-75
2022/06/15 06:09:29;;;;;;;5.93;3.70;;;;;;;;;;5103314;28;20293;-76
2022/06/15 06:11:57;;;;;;;5.35;3.83;;;;;;;;;;5103201;28;20669;-75
2022/06/15 06:14:24;;;;;;;27.15;5.55;;;;;;;;;;5099691;28;20313;-75
2022/06/15 06:16:51;;;;;;;6.03;3.53;;;;;;;;;;5102688;28;20294;-75
2022/06/15 06:19:18;;;;;;;7.15;3.55;;;;;;;;;;5110936;28;20657;-75
2022/06/15 06:21:47;;;;;;;6.78;3.50;;;;;;;;;;5098076;28;20631;-75
2022/06/15 06:24:14;;;;;;;4.15;3.53;;;;;;;;;;5109114;27;20196;-76
2022/06/15 06:26:42;;;;;;;11.23;4.13;;;;;;;;;;5109037;27;20285;-75
2022/06/15 06:29:12;;;;;;;6.72;3.35;;;;;;;;;;5106115;27;20209;-75
2022/06/15 06:31:40;;;;;;;6.15;3.38;;;;;;;;;;5107403;27;20623;-73
2022/06/15 06:34:07;;;;;;;4.05;3.00;;;;;;;;;;5105401;27;20317;-73
2022/06/15 06:36:35;;;;;;;5.78;3.17;;;;;;;;;;5107078;27;20203;-73
2022/06/15 06:39:06;;;;;;;5.30;2.95;;;;;;;;;;5108324;27;20250;-73
2022/06/15 06:41:34;;;;;;;5.13;2.95;;;;;;;;;;5106647;28;20300;-74
2022/06/15 06:44:03;;;;;;;6.28;2.70;;;;;;;;;;5108144;27;20301;-73
2022/06/15 06:46:30;;;;;;;4.80;2.80;;;;;;;;;;5102081;27;20194;-75
2022/06/15 06:48:58;;;;;;;4.10;2.78;;;;;;;;;;5100757;28;20225;-75
2022/06/15 06:51:26;;;;;;;3.72;2.65;;;;;;;;;;5107028;28;20276;-75
2022/06/15 06:53:54;;;;;;;3.75;2.53;;;;;;;;;;5109995;28;20296;-75
2022/06/15 06:56:23;;;;;;;5.20;3.00;;;;;;;;;;5106636;28;20691;-75
2022/06/15 06:58:50;;;;;;;5.97;2.83;;;;;;;;;;5110353;27;20202;-75
2022/06/15 07:01:17;;;;;;;3.95;2.60;;;;;;;;;;5107144;28;20245;-75
2022/06/15 07:03:44;;;;;;;4.80;2.63;;;;;;;;;;5113270;27;20288;-75
2022/06/15 07:06:12;;;;;;;4.50;2.85;;;;;;;;;;5108265;27;20228;-75
2022/06/15 07:08:39;;;;;;;4.25;2.83;;;;;;;;;;5101877;28;20285;-75
2022/06/15 07:11:09;;;;;;;4.32;2.47;;;;;;;;;;5098473;28;20349;-75
2022/06/15 07:13:38;;;;;;;4.93;2.60;;;;;;;;;;5109396;28;20194;-75
2022/06/15 07:16:06;;;;;;;3.78;2.50;;;;;;;;;;5112521;27;20666;-74
2022/06/15 07:18:33;;;;;;;3.75;2.72;;;;;;;;;;5114696;27;20205;-74
2022/06/15 07:21:02;;;;;;;2.88;2.25;;;;;;;;;;5106142;27;20293;-74
2022/06/15 07:23:29;;;;;;;5.88;2.65;;;;;;;;;;5105169;28;20281;-75
2022/06/15 07:25:56;;;;;;;5.78;2.63;;;;;;;;;;5107760;28;20406;-75
2022/06/15 07:28:24;;;;;;;3.53;2.35;;;;;;;;;;5108841;27;20289;-77
2022/06/15 07:30:52;;;;;;;4.57;2.63;;;;;;;;;;5104969;28;20293;-76
2022/06/15 07:33:20;;;;;;;4.05;2.50;;;;;;;;;;5105696;27;20309;-75
2022/06/15 07:35:48;;;;;;;3.78;2.58;;;;;;;;;;5110040;27;20221;-74
2022/06/15 07:38:15;;;;;;;4.88;2.25;;;;;;;;;;5104717;27;20247;-75
2022/06/15 07:40:42;;;;;;;6.78;2.58;;;;;;;;;;5098258;28;20198;-75
2022/06/15 07:43:09;;;;;;;6.40;2.25;;;;;;;;;;5110350;27;20288;-75
2022/06/15 07:45:37;;;;;;;3.78;2.63;;;;;;;;;;5103897;28;20661;-75
2022/06/15 07:50:53;;;;;;;3.58;2.95;;;;;;;;;;5099090;28;20213;-75
2022/06/15 07:53:21;;;;;;;4.53;2.85;;;;;;;;;;5104666;27;20274;-75
2022/06/15 07:55:48;;;;;;;3.08;2.58;;;;;;;;;;5105538;27;20312;-74
2022/06/15 07:58:16;;;;;;;5.65;2.58;;;;;;;;;;5098609;27;20662;-74
2022/06/15 08:00:44;;;;;;;3.72;2.50;;;;;;;;;;5105425;27;20325;-75
2022/06/15 08:03:13;;;;;;;4.15;2.50;;;;;;;;;;5108386;27;20293;-75
2022/06/15 08:05:42;;;;;;;3.20;2.42;;;;;;;;;;5100067;28;20293;-75
2022/06/15 08:08:10;;;;;;;4.50;2.70;;;;;;;;;;5109029;28;20292;-75
2022/06/15 08:10:37;;;;;;;8.30;3.15;;;;;;;;;;5105962;27;20294;-75
2022/06/15 08:13:05;;;;;;;4.45;2.38;;;;;;;;;;5104130;27;20212;-75
2022/06/15 08:15:32;;;;;;;5.68;2.58;;;;;;;;;;5097496;27;20255;-75
2022/06/15 08:18:01;;;;;;;4.47;2.28;;;;;;;;;;5097240;28;20233;-75
2022/06/15 08:20:35;;;;;;;5.35;2.70;;;;;;;;;;5097748;28;20203;-75
2022/06/15 08:23:04;;;;;;;4.88;2.50;;;;;;;;;;5102401;28;20657;-75
2022/06/15 08:25:35;;;;;;;4.63;2.97;;;;;;;;;;5108432;27;20233;-74
2022/06/15 08:28:03;;;;;;;4.35;2.72;;;;;;;;;;5111800;27;20868;-75
2022/06/15 08:30:30;;;;;;;8.98;2.88;;;;;;;;;;5100136;28;20198;-75
2022/06/15 08:32:57;;;;;;;4.85;2.65;;;;;;;;;;5096322;28;20302;-75
2022/06/15 08:35:24;;;;;;;4.00;2.63;;;;;;;;;;5099583;28;20213;-75
2022/06/15 08:37:53;;;;;;;3.85;2.58;;;;;;;;;;5103334;28;20229;-75
2022/06/15 08:40:20;;;;;;;5.03;2.63;;;;;;;;;;5103540;28;20544;-74
2022/06/15 08:42:52;;;;;;;6.85;3.00;;;;;;;;;;5099774;27;20287;-75
2022/06/15 08:45:25;;;;;;;3.33;2.80;;;;;;;;;;5100630;28;20244;-75
2022/06/15 08:48:09;;;;;;;6.50;2.42;;;;;;;;;;5100003;27;20195;-75
2022/06/15 08:50:38;;;;;;;6.18;2.42;;;;;;;;;;5095767;28;20214;-75
2022/06/15 08:53:11;;;;;;;3.60;2.60;;;;;;;;;;5103473;28;20237;-75
2022/06/15 08:55:43;;;;;;;3.47;2.70;;;;;;;;;;5100344;28;20217;-75
2022/06/15 08:58:13;;;;;;;3.03;2.40;;;;;;;;;;5106802;28;20801;-75
2022/06/15 09:00:41;;;;;;;4.78;2.78;;;;;;;;;;5108020;28;20832;-75
2022/06/15 09:03:14;;;;;;;3.83;2.70;;;;;;;;;;5106986;28;20312;-75
2022/06/15 09:05:46;;;;;;;5.43;2.70;;;;;;;;;;5098392;28;20269;-75
2022/06/15 09:08:28;;;;;;;5.65;2.78;;;;;;;;;;5108281;28;20287;-75
2022/06/15 09:11:01;;;;;;;4.28;2.70;;;;;;;;;;5104076;28;20258;-75
2022/06/15 09:13:35;;;;;;;5.72;2.67;;;;;;;;;;5105419;28;20305;-75
2022/06/15 09:16:07;;;;;;;3.35;2.30;;;;;;;;;;5103744;28;20312;-75
2022/06/15 09:18:37;;;;;;;5.22;2.60;;;;;;;;;;5096869;28;20200;-76
2022/06/15 09:21:07;;;;;;;3.03;2.30;;;;;;;;;;5094172;28;20232;-76
2022/06/15 09:23:42;;;;;;;3.22;2.40;;;;;;;;;;5100052;28;20624;-75
2022/06/15 09:26:17;;;;;;;5.00;2.50;;;;;;;;;;5100513;28;20276;-76
2022/06/15 09:28:45;;;;;;;5.20;2.60;;;;;;;;;;5103838;28;20277;-76
2022/06/15 09:31:17;;;;;;;6.32;2.40;;;;;;;;;;5107141;28;20239;-76
2022/06/15 09:33:47;;;;;;;4.53;2.67;;;;;;;;;;5102421;28;20582;-76
2022/06/15 09:36:17;;;;;;;3.00;2.70;;;;;;;;;;5107384;28;20239;-75
2022/06/15 09:38:44;;;;;;;4.10;2.60;;;;;;;;;;5114405;28;20204;-75
2022/06/15 09:41:15;;;;;;;7.93;2.95;;;;;;;;;;5105816;28;20197;-75
2022/06/15 09:43:47;;;;;;;4.22;2.25;;;;;;;;;;5104045;28;20744;-75
2022/06/15 09:46:21;;;;;;;3.60;2.78;;;;;;;;;;5107525;28;20285;-75
2022/06/15 09:48:59;;;;;;;3.85;2.50;;;;;;;;;;5097051;28;20204;-76
2022/06/15 09:51:29;;;;;;;4.47;2.78;;;;;;;;;;5098997;28;20248;-75
2022/06/15 09:54:01;;;;;;;4.80;2.38;;;;;;;;;;5107900;28;20292;-76
2022/06/15 09:56:29;;;;;;;3.70;2.55;;;;;;;;;;5110022;28;20308;-75
2022/06/15 09:58:59;;;;;;;12.40;2.75;;;;;;;;;;5110305;27;20202;-75
2022/06/15 10:01:28;;;;;;;8.32;2.45;;;;;;;;;;5106607;28;20305;-75
2022/06/15 10:03:57;;;;;;;4.88;2.50;;;;;;;;;;5109139;28;20284;-75
2022/06/15 10:06:26;;;;;;;7.35;2.80;;;;;;;;;;5103214;28;20283;-75
2022/06/15 10:08:54;;;;;;;5.32;2.83;;;;;;;;;;5109385;27;20207;-75
2022/06/15 10:11:24;;;;;;;5.10;2.50;;;;;;;;;;5107412;27;20205;-75
2022/06/15 10:13:53;;;;;;;4.43;2.47;;;;;;;;;;5104873;27;20308;-75
2022/06/15 10:16:22;;;;;;;6.43;2.63;;;;;;;;;;5104522;27;20304;-75
2022/06/15 10:18:51;;;;;;;3.20;2.50;;;;;;;;;;5106833;27;20229;-75
2022/06/15 10:21:21;;;;;;;5.40;2.40;;;;;;;;;;5110417;27;20220;-75
2022/06/15 10:24:00;;;;;;;3.72;2.08;;;;;;;;;;5101594;28;20284;-75
2022/06/15 10:26:31;;;;;;;5.45;2.40;;;;;;;;;;5114471;27;20255;-76
2022/06/15 10:29:00;;;;;;;4.30;2.47;;;;;;;;;;5101949;28;20194;-75
2022/06/15 10:31:30;;;;;;;4.47;2.70;;;;;;;;;;5101148;28;20720;-75
2022/06/15 10:33:58;;;;;;;4.28;2.80;;;;;;;;;;5113421;27;20201;-76
2022/06/15 10:36:29;;;;;;;4.78;2.60;;;;;;;;;;5100818;28;20249;-76
2022/06/15 10:39:00;;;;;;;4.50;2.53;;;;;;;;;;5102107;28;20650;-75
2022/06/15 10:41:46;;;;;;;4.20;2.53;;;;;;;;;;5110349;28;20284;-76
2022/06/15 10:44:16;;;;;;;4.03;2.35;;;;;;;;;;5114076;27;20229;-75
2022/06/15 10:46:50;;;;;;;2.65;2.40;;;;;;;;;;5112261;27;20189;-76
2022/06/15 10:49:17;;;;;;;2.72;2.33;;;;;;;;;;5109860;28;20288;-75
2022/06/15 10:51:45;;;;;;;3.70;2.30;;;;;;;;;;5110942;27;20285;-75
2022/06/15 10:54:15;;;;;;;3.33;2.35;;;;;;;;;;5109503;28;20197;-75
2022/06/15 11:02:24;;;;;;;4.22;2.55;;;;;;;;;;5101570;28;20722;-75
2022/06/15 11:04:52;;;;;;;5.53;2.90;;;;;;;;;;5106388;28;20203;-75
2022/06/15 11:07:27;;;;;;;6.88;2.70;;;;;;;;;;5100815;28;20296;-75
2022/06/15 11:10:02;;;;;;;4.15;2.47;;;;;;;;;;5096983;28;20205;-75
2022/06/15 11:12:33;;;;;;;8.40;2.58;;;;;;;;;;5107520;27;20197;-75
2022/06/15 11:15:03;;;;;;;3.47;2.70;;;;;;;;;;5106983;28;20246;-75
2022/06/15 11:20:23;;;;;;;3.30;2.30;;;;;;;;;;5109214;28;20694;-75
2022/06/15 11:22:52;;;;;;;4.85;2.55;;;;;;;;;;5105297;28;20316;-77
2022/06/15 11:25:22;;;;;;;3.08;2.42;;;;;;;;;;5107558;27;20277;-76
2022/06/15 11:27:52;;;;;;;5.10;2.53;;;;;;;;;;5097326;28;20189;-76
2022/06/15 11:30:26;;;;;;;4.10;2.78;;;;;;;;;;5105982;27;20217;-76
2022/06/15 11:32:58;;;;;;;5.57;2.72;;;;;;;;;;5101256;28;20212;-76
2022/06/15 11:35:29;;;;;;;5.20;2.63;;;;;;;;;;5103414;27;20289;-76
2022/06/15 11:37:59;;;;;;;4.63;2.70;;;;;;;;;;5120907;27;20291;-76
2022/06/15 11:40:32;;;;;;;6.90;2.70;;;;;;;;;;5111284;28;20197;-75
2022/06/15 11:43:00;;;;;;;4.07;2.70;;;;;;;;;;5101262;27;20297;-75
2022/06/15 11:45:32;;;;;;;3.20;2.55;;;;;;;;;;5109924;27;20233;-75
2022/06/15 11:48:04;;;;;;;5.22;2.85;;;;;;;;;;5105044;28;20209;-75
2022/06/15 11:50:36;;;;;;;6.28;2.50;;;;;;;;;;5106079;27;20200;-76
2022/06/15 11:53:07;;;;;;;4.97;2.63;;;;;;;;;;5109048;28;20271;-76
2022/06/15 11:55:38;;;;;;;4.78;2.90;;;;;;;;;;5113729;27;20320;-76
2022/06/15 11:58:18;;;;;;;5.50;3.17;;;;;;;;;;5107317;28;20576;-76
2022/06/15 12:00:50;;;;;;;2.83;2.53;;;;;;;;;;5106751;28;20224;-77
2022/06/15 12:03:28;;;;;;;3.25;2.53;;;;;;;;;;5103045;28;20195;-77
2022/06/15 12:05:59;;;;;;;3.40;2.60;;;;;;;;;;5109626;27;20196;-76
2022/06/15 12:08:31;;;;;;;5.78;2.60;;;;;;;;;;5107248;28;20652;-77
2022/06/15 12:11:02;;;;;;;3.58;2.65;;;;;;;;;;5107554;28;20916;-77
2022/06/15 12:13:38;;;;;;;5.60;2.78;;;;;;;;;;5106416;27;20203;-77
2022/06/15 12:16:10;;;;;;;7.63;2.65;;;;;;;;;;5105676;28;20307;-76
2022/06/15 12:18:48;;;;;;;3.45;2.55;;;;;;;;;;5107737;28;20289;-77
2022/06/15 12:21:20;;;;;;;4.03;2.45;;;;;;;;;;5128543;27;20288;-76
2022/06/15 12:23:56;;;;;;;2.80;2.47;;;;;;;;;;5098439;28;20212;-76
2022/06/15 12:26:26;;;;;;;5.22;2.67;;;;;;;;;;5101770;28;20216;-77
2022/06/15 12:28:58;;;;;;;3.83;2.33;;;;;;;;;;5103804;28;20327;-76
2022/06/15 12:31:33;;;;;;;4.28;2.67;;;;;;;;;;5109009;28;20204;-77
2022/06/15 12:34:02;;;;;;;4.90;2.45;;;;;;;;;;5106183;28;20292;-76
2022/06/15 12:36:33;;;;;;;4.70;2.50;;;;;;;;;;5100197;27;20295;-77
2022/06/15 12:39:04;;;;;;;4.88;2.15;;;;;;;;;;5105580;28;20277;-77
2022/06/15 12:44:21;;;;;;;3.67;2.58;;;;;;;;;;5108276;27;20371;-76
2022/06/15 12:46:51;;;;;;;3.90;2.80;;;;;;;;;;5101185;27;20289;-76
2022/06/15 12:49:25;;;;;;;7.88;3.00;;;;;;;;;;5109039;27;20257;-76
2022/06/15 12:51:57;;;;;;;5.45;3.00;;;;;;;;;;5107279;28;20306;-77
2022/06/15 12:54:29;;;;;;;6.20;3.10;;;;;;;;;;5098464;28;20225;-76
2022/06/15 12:57:01;;;;;;;2.72;2.53;;;;;;;;;;5098343;28;20274;-76
2022/06/15 12:59:35;;;;;;;11.40;3.55;;;;;;;;;;5108257;28;20265;-76
2022/06/15 13:02:09;;;;;;;4.72;2.70;;;;;;;;;;5099836;28;20333;-76
2022/06/15 13:04:39;;;;;;;5.55;2.67;;;;;;;;;;5106965;27;20615;-76
2022/06/15 13:07:33;;;;;;;5.07;2.80;;;;;;;;;;5105697;28;20202;-76
2022/06/15 13:10:17;;;;;;;3.97;2.80;;;;;;;;;;5052837;28;20715;-75
2022/06/15 13:12:45;;;;;;;4.28;2.47;;;;;;;;;;5061159;28;20750;-75
2022/06/15 13:15:24;;;;;;;3.47;2.78;;;;;;;;;;5064274;28;20226;-76
2022/06/15 13:18:09;;;;;;;4.97;2.88;;;;;;;;;;5059389;28;20214;-76
2022/06/15 13:20:55;;;;;;;5.22;3.22;;;;;;;;;;5057501;28;20221;-76
2022/06/15 13:23:26;;;;;;;3.78;2.70;;;;;;;;;;5056197;28;20191;-75
2022/06/15 13:25:56;;;;;;;5.25;2.75;;;;;;;;;;5057740;28;20312;-75
2022/06/15 13:28:24;;;;;;;6.50;2.95;;;;;;;;;;5061920;28;20714;-76
2022/06/15 13:30:54;;;;;;;6.28;3.33;;;;;;;;;;5058370;28;20202;-75
2022/06/15 13:33:43;;;;;;;3.38;2.90;;;;;;;;;;5067415;28;20305;-75
2022/06/15 13:36:20;;;;;;;4.53;2.78;;;;;;;;;;5060341;28;20298;-76
2022/06/15 13:38:47;;;;;;;4.35;2.95;;;;;;;;;;5060561;28;20289;-75
2022/06/15 13:41:23;;;;;;;5.50;2.63;;;;;;;;;;5066926;28;20210;-76
2022/06/15 13:44:10;;;;;;;5.22;2.85;;;;;;;;;;5068471;28;20534;-76
2022/06/15 13:46:39;;;;;;;4.25;2.60;;;;;;;;;;5105856;27;20207;-76
2022/06/15 13:49:11;;;;;;;4.50;2.60;;;;;;;;;;5107985;27;20240;-76
2022/06/15 13:51:42;;;;;;;4.50;3.08;;;;;;;;;;5102242;28;20284;-76
2022/06/15 13:54:26;;;;;;;3.13;2.72;;;;;;;;;;5108756;28;20261;-76
2022/06/15 13:57:00;;;;;;;4.10;2.70;;;;;;;;;;5103806;28;20317;-76
2022/06/15 13:59:31;;;;;;;7.07;2.72;;;;;;;;;;5110565;28;20197;-76
2022/06/15 14:02:12;;;;;;;5.82;2.90;;;;;;;;;;5106396;27;20237;-76
2022/06/15 14:05:03;;;;;;;4.70;2.50;;;;;;;;;;5097329;28;20208;-76
2022/06/15 14:07:52;;;;;;;5.68;2.83;;;;;;;;;;5096423;27;20201;-76
2022/06/15 14:10:27;;;;;;;5.32;3.00;;;;;;;;;;5107027;27;20197;-76
2022/06/15 14:13:06;;;;;;;6.75;3.00;;;;;;;;;;5105725;27;20287;-76
2022/06/15 14:15:43;;;;;;;3.95;2.97;;;;;;;;;;5110264;28;20285;-76
2022/06/15 14:18:23;;;;;;;3.97;2.75;;;;;;;;;;5119312;27;20305;-76
2022/06/15 14:20:51;;;;;;;4.88;2.70;;;;;;;;;;5110816;27;20215;-76
2022/06/15 14:23:28;;;;;;;7.00;3.05;;;;;;;;;;5107564;28;20732;-76
2022/06/15 14:25:55;;;;;;;5.78;2.95;;;;;;;;;;5109871;27;20194;-76
2022/06/15 14:28:25;;;;;;;4.53;2.75;;;;;;;;;;5116225;27;20272;-76
2022/06/15 14:30:59;;;;;;;3.38;2.50;;;;;;;;;;5109135;27;20194;-76
2022/06/15 14:33:27;;;;;;;6.65;3.00;;;;;;;;;;5102289;27;20198;-76
2022/06/15 14:36:01;;;;;;;5.20;2.70;;;;;;;;;;5102440;28;20662;-76
2022/06/15 14:38:32;;;;;;;4.47;2.30;;;;;;;;;;5108372;27;20221;-76
2022/06/15 14:41:16;;;;;;;5.55;3.10;;;;;;;;;;5100758;28;20205;-76
2022/06/15 14:43:44;;;;;;;5.55;2.63;;;;;;;;;;5110551;27;20236;-76
2022/06/15 14:46:16;;;;;;;3.03;2.72;;;;;;;;;;5100508;28;20233;-75
2022/06/15 14:48:47;;;;;;;4.20;2.70;;;;;;;;;;5113355;27;20611;-76
2022/06/15 14:51:15;;;;;;;4.03;2.70;;;;;;;;;;5102930;28;20238;-76
2022/06/15 14:53:55;;;;;;;4.22;2.63;;;;;;;;;;5108555;27;20293;-76
2022/06/15 14:56:23;;;;;;;3.90;2.25;;;;;;;;;;5111186;27;20594;-75
2022/06/15 14:58:57;;;;;;;4.90;2.58;;;;;;;;;;5110207;28;20294;-75
2022/06/15 15:01:25;;;;;;;7.30;3.05;;;;;;;;;;5112931;27;20268;-75
2022/06/15 15:03:53;;;;;;;4.50;2.78;;;;;;;;;;5114954;27;20712;-75
2022/06/15 15:06:21;;;;;;;3.90;2.53;;;;;;;;;;5112546;27;20210;-76
2022/06/15 15:08:51;;;;;;;5.88;3.03;;;;;;;;;;5104527;28;20292;-75
2022/06/15 15:11:29;;;;;;;4.13;2.60;;;;;;;;;;5110212;28;20221;-75
2022/06/15 15:14:01;;;;;;;5.07;2.75;;;;;;;;;;5110069;28;20201;-75
2022/06/15 15:16:30;;;;;;;4.32;2.58;;;;;;;;;;5109695;27;20525;-75